Time;durP1;ratioP1;P1;durP2;ratioP2;P2;SDS_P1;SDS_P2;PMS_P1;PMS_P2;Temp;Humidity;BMP_temperature;BMP_pressure;BME280_temperature;BME280_humidity;BME280_pressure;Samples;Min_cycle;Max_cycle;Signal;HPM_P1;HPM_P2
2023/07/03 00:00:53;;;;;;;;;;;;;;;19.06;51.09;98014.78;7369242;19;19927;-70
2023/07/03 00:03:20;;;;;;;;;;;;;;;19.18;50.17;98009.56;7364542;19;19915;-70
2023/07/03 00:05:47;;;;;;;;;;;;;;;19.26;50.53;98015.44;7366009;19;19930;-70
2023/07/03 00:08:15;;;;;;;;;;;;;;;19.26;50.99;98004.72;7370198;19;19931;-70
2023/07/03 00:10:41;;;;;;;;;;;;;;;19.17;50.50;98008.75;7362423;19;19915;-71
2023/07/03 00:13:08;;;;;;;;;;;;;;;19.16;51.23;98009.75;7358843;19;20511;-70
2023/07/03 00:15:35;;;;;;;;;;;;;;;19.29;50.22;98020.38;7361088;19;20668;-70
2023/07/03 00:18:02;;;;;;;;;;;;;;;19.10;51.03;98013.31;7362938;19;19914;-70
2023/07/03 00:20:29;;;;;;;;;;;;;;;19.01;51.57;98017.31;7362028;19;19923;-71
2023/07/03 00:22:56;;;;;;;;;;;;;;;19.02;52.43;98008.25;7364565;19;19997;-71
2023/07/03 00:25:22;;;;;;;;;;;;;;;19.12;52.23;98011.25;7365898;19;19935;-71
2023/07/03 00:27:49;;;;;;;;;;;;;;;19.05;53.41;98011.28;7367048;19;19997;-71
2023/07/03 00:30:16;;;;;;;;;;;;;;;19.19;50.96;98014.69;7366022;19;19937;-70
2023/07/03 00:32:43;;;;;;;;;;;;;;;19.15;52.54;98013.50;7363785;19;19944;-71
2023/07/03 00:35:09;;;;;;;;;;;;;;;19.12;52.14;98013.13;7368381;19;20272;-70
2023/07/03 00:37:36;;;;;;;;;;;;;;;19.13;52.38;98012.88;7355922;19;19993;-71
2023/07/03 00:40:03;;;;;;;;;;;;;;;19.08;53.32;98015.41;7358817;19;20012;-71
2023/07/03 00:42:30;;;;;;;;;;;;;;;19.10;52.34;98016.00;7364846;19;20342;-70
2023/07/03 00:44:58;;;;;;;;;;;;;;;19.16;51.64;98017.00;7366060;19;19923;-70
2023/07/03 00:47:25;;;;;;;;;;;;;;;19.17;52.68;98016.78;7361646;19;20444;-71
2023/07/03 00:49:51;;;;;;;;;;;;;;;19.17;52.34;98013.25;7355310;19;20048;-70
2023/07/03 00:52:19;;;;;;;;;;;;;;;19.09;53.67;98019.75;7360679;19;19922;-70
2023/07/03 00:54:45;;;;;;;;;;;;;;;18.86;53.38;98015.78;7363505;19;19914;-70
2023/07/03 00:57:13;;;;;;;;;;;;;;;19.06;54.09;98018.31;7359578;19;20566;-71
2023/07/03 00:59:40;;;;;;;;;;;;;;;19.10;53.53;98015.19;7357966;19;19926;-70
2023/07/03 01:02:16;;;;;;;;;;;;;;;19.13;52.41;98010.19;7367261;19;19925;-71
2023/07/03 01:04:49;;;;;;;;;;;;;;;19.11;53.27;98011.47;7359421;19;20464;-71
2023/07/03 01:07:16;;;;;;;;;;;;;;;19.19;53.55;98005.81;7189589;19;3435278;-71
2023/07/03 01:09:48;;;;;;;;;;;;;;;19.15;53.17;98010.00;7362038;19;19954;-72
2023/07/03 01:12:15;;;;;;;;;;;;;;;19.24;54.27;98004.13;7366293;19;19929;-71
2023/07/03 01:14:42;;;;;;;;;;;;;;;19.30;53.65;98003.25;7368387;19;20360;-71
2023/07/03 01:17:09;;;;;;;;;;;;;;;19.31;53.03;98001.38;7371556;19;19930;-71
2023/07/03 01:19:37;;;;;;;;;;;;;;;19.37;54.52;98003.16;7371899;19;20053;-70
2023/07/03 01:22:08;;;;;;;;;;;;;;;19.42;52.70;98006.00;7363049;19;19922;-71
2023/07/03 01:24:37;;;;;;;;;;;;;;;19.40;53.22;98001.91;7372248;19;19927;-70
2023/07/03 01:27:04;;;;;;;;;;;;;;;19.44;53.08;97997.75;7372862;19;19953;-70
2023/07/03 01:29:31;;;;;;;;;;;;;;;19.48;51.80;98002.47;7374010;19;19922;-71
2023/07/03 01:31:58;;;;;;;;;;;;;;;19.36;52.81;97998.03;7371950;19;19927;-71
2023/07/03 01:34:25;;;;;;;;;;;;;;;19.49;51.16;97995.22;7372926;19;20321;-71
2023/07/03 01:36:52;;;;;;;;;;;;;;;19.38;52.50;97999.47;7371320;19;19919;-71
2023/07/03 01:39:19;;;;;;;;;;;;;;;19.34;52.67;97998.25;7367543;19;19931;-71
2023/07/03 01:41:47;;;;;;;;;;;;;;;19.23;53.37;98001.66;7365523;19;19919;-71
2023/07/03 01:44:14;;;;;;;;;;;;;;;19.40;51.95;97992.00;7372582;19;20639;-70
2023/07/03 01:46:41;;;;;;;;;;;;;;;19.32;52.66;97997.66;7372385;19;19957;-71
2023/07/03 01:49:14;;;;;;;;;;;;;;;19.37;52.53;97997.81;7374099;19;20298;-70
2023/07/03 01:51:47;;;;;;;;;;;;;;;18.99;53.73;97992.59;7366596;19;19939;-71
2023/07/03 01:54:16;;;;;;;;;;;;;;;18.91;54.59;97995.56;7375521;19;19933;-71
2023/07/03 01:56:43;;;;;;;;;;;;;;;18.89;54.96;97987.72;7372683;19;20229;-71
2023/07/03 01:59:13;;;;;;;;;;;;;;;18.81;54.76;97993.34;7370960;19;19927;-71
2023/07/03 02:01:42;;;;;;;;;;;;;;;18.90;54.01;97993.91;7370780;19;19919;-70
2023/07/03 02:04:15;;;;;;;;;;;;;;;18.92;53.10;97987.28;7368868;19;20001;-70
2023/07/03 02:06:43;;;;;;;;;;;;;;;18.88;54.06;97988.78;7371593;19;20261;-70
2023/07/03 02:09:10;;;;;;;;;;;;;;;18.89;53.84;97989.59;7372391;19;19923;-70
2023/07/03 02:11:43;;;;;;;;;;;;;;;18.83;53.81;97981.38;7362544;19;19947;-70
2023/07/03 02:14:11;;;;;;;;;;;;;;;18.91;54.69;97987.50;7371057;19;19929;-71
2023/07/03 02:16:41;;;;;;;;;;;;;;;18.77;54.79;97989.47;7367233;19;19926;-71
2023/07/03 02:19:08;;;;;;;;;;;;;;;18.81;54.03;97983.44;7370373;19;19957;-70
2023/07/03 02:21:35;;;;;;;;;;;;;;;18.97;54.08;97982.09;7367765;19;19918;-71
2023/07/03 02:24:04;;;;;;;;;;;;;;;19.07;53.01;97986.97;7372852;19;19933;-70
2023/07/03 02:26:31;;;;;;;;;;;;;;;19.21;52.38;97988.47;7370417;19;20612;-70
2023/07/03 02:28:57;;;;;;;;;;;;;;;19.14;52.75;97998.47;7343600;19;19919;-70
2023/07/03 02:31:24;;;;;;;;;;;;;;;19.18;53.62;97993.47;7350191;19;20368;-70
2023/07/03 02:33:51;;;;;;;;;;;;;;;19.16;52.91;97995.53;7365620;19;19934;-70
2023/07/03 02:36:18;;;;;;;;;;;;;;;19.20;53.18;97992.19;7371821;19;19930;-70
2023/07/03 02:38:45;;;;;;;;;;;;;;;19.07;53.12;97997.69;7368579;19;19925;-70
2023/07/03 02:41:11;;;;;;;;;;;;;;;19.15;53.31;97992.03;7371154;19;19915;-70
2023/07/03 02:43:38;;;;;;;;;;;;;;;19.12;54.15;97997.84;7370799;19;19927;-70
2023/07/03 02:46:05;;;;;;;;;;;;;;;19.07;52.81;97986.97;7369430;19;20354;-70
2023/07/03 02:48:33;;;;;;;;;;;;;;;19.13;53.30;97985.25;7363603;19;19922;-70
2023/07/03 02:51:00;;;;;;;;;;;;;;;19.12;54.57;97987.13;7364874;19;20268;-70
2023/07/03 02:53:27;;;;;;;;;;;;;;;19.24;53.25;97995.25;7363421;19;19922;-70
2023/07/03 02:56:02;;;;;;;;;;;;;;;19.19;54.24;97985.19;7370503;19;19982;-70
2023/07/03 02:58:29;;;;;;;;;;;;;;;19.24;52.78;97976.47;7367438;19;19926;-70
2023/07/03 03:00:56;;;;;;;;;;;;;;;19.24;53.17;97977.28;7368838;19;19955;-70
2023/07/03 03:03:23;;;;;;;;;;;;;;;19.30;53.14;97975.63;7369580;19;19915;-70
2023/07/03 03:05:50;;;;;;;;;;;;;;;19.38;50.30;97972.66;7361408;19;19933;-70
2023/07/03 03:08:18;;;;;;;;;;;;;;;19.29;53.18;97977.44;7367360;19;19919;-70
2023/07/03 03:10:45;;;;;;;;;;;;;;;19.34;52.78;97976.78;7368936;19;19990;-70
2023/07/03 03:13:11;;;;;;;;;;;;;;;19.27;52.77;97979.56;7368224;19;19933;-70
2023/07/03 03:15:38;;;;;;;;;;;;;;;19.18;53.91;97982.75;7368609;19;19933;-70
2023/07/03 03:18:05;;;;;;;;;;;;;;;19.24;53.64;97976.47;7371349;19;19926;-70
2023/07/03 03:20:32;;;;;;;;;;;;;;;19.15;54.42;97973.28;7367716;19;19922;-70
2023/07/03 03:22:58;;;;;;;;;;;;;;;19.14;54.34;97979.69;7368508;19;20401;-70
2023/07/03 03:25:25;;;;;;;;;;;;;;;19.10;54.20;97981.16;7371973;19;20519;-70
2023/07/03 03:27:52;;;;;;;;;;;;;;;19.14;55.44;97974.31;7365957;19;19929;-70
2023/07/03 03:30:18;;;;;;;;;;;;;;;19.05;55.73;97972.94;7366567;19;19922;-70
2023/07/03 03:32:46;;;;;;;;;;;;;;;19.03;55.49;97977.69;7364540;19;19922;-70
2023/07/03 03:35:13;;;;;;;;;;;;;;;19.10;55.55;97975.78;7369409;19;20373;-70
2023/07/03 03:37:40;;;;;;;;;;;;;;;19.09;54.27;97974.16;7360853;19;19998;-70
2023/07/03 03:40:08;;;;;;;;;;;;;;;19.06;56.37;97969.22;7362753;19;20371;-70
2023/07/03 03:42:36;;;;;;;;;;;;;;;19.18;56.60;97972.00;7368650;19;19927;-70
2023/07/03 03:45:05;;;;;;;;;;;;;;;19.22;55.51;97968.69;7367289;19;20357;-70
2023/07/03 03:47:31;;;;;;;;;;;;;;;19.29;54.56;97969.41;7358734;19;19990;-70
2023/07/03 03:49:59;;;;;;;;;;;;;;;19.38;53.92;97972.66;7368904;19;20331;-70
2023/07/03 03:52:25;;;;;;;;;;;;;;;19.28;52.28;97975.81;7369031;19;19925;-70
2023/07/03 03:54:52;;;;;;;;;;;;;;;19.26;52.92;97971.72;7369523;19;19926;-70
2023/07/03 03:57:19;;;;;;;;;;;;;;;19.28;54.06;97972.31;7347689;19;19933;-70
2023/07/03 03:59:46;;;;;;;;;;;;;;;19.33;54.22;97975.16;7355605;19;19915;-70
2023/07/03 04:02:12;;;;;;;;;;;;;;;19.43;52.71;97978.16;7362502;19;19921;-69
2023/07/03 04:04:41;;;;;;;;;;;;;;;19.46;52.41;97982.28;7368298;19;19958;-70
2023/07/03 04:07:08;;;;;;;;;;;;;;;19.40;53.93;97986.63;7368507;19;19923;-70
2023/07/03 04:09:34;;;;;;;;;;;;;;;19.34;55.02;97984.03;7366238;19;19918;-70
2023/07/03 04:12:02;;;;;;;;;;;;;;;19.43;53.23;97980.84;7363003;19;19927;-69
2023/07/03 04:14:29;;;;;;;;;;;;;;;19.45;53.62;97984.09;7369397;19;19922;-69
2023/07/03 04:16:57;;;;;;;;;;;;;;;19.49;52.59;97979.13;7360119;19;20337;-69
2023/07/03 04:19:25;;;;;;;;;;;;;;;19.49;52.62;97984.50;7363795;19;20304;-70
2023/07/03 04:21:52;;;;;;;;;;;;;;;19.61;53.02;97985.38;7365016;19;19929;-69
2023/07/03 04:24:19;;;;;;;;;;;;;;;19.55;52.83;97985.47;7366078;19;19952;-70
2023/07/03 04:26:45;;;;;;;;;;;;;;;19.62;53.95;97983.53;7366473;19;19939;-70
2023/07/03 04:29:12;;;;;;;;;;;;;;;19.76;53.49;97990.41;7360150;19;19922;-70
2023/07/03 04:31:39;;;;;;;;;;;;;;;19.69;53.88;97987.78;7361734;19;19922;-69
2023/07/03 04:34:05;;;;;;;;;;;;;;;19.74;53.47;97993.31;7369710;19;20270;-69
2023/07/03 04:36:32;;;;;;;;;;;;;;;19.81;53.87;97992.44;7368692;19;20373;-71
2023/07/03 04:39:00;;;;;;;;;;;;;;;19.82;52.60;97992.19;7366275;19;19914;-70
2023/07/03 04:41:27;;;;;;;;;;;;;;;19.89;53.58;97992.13;7368185;19;19946;-70
2023/07/03 04:43:57;;;;;;;;;;;;;;;19.91;53.04;97992.72;7363540;19;19929;-71
2023/07/03 04:46:26;;;;;;;;;;;;;;;19.98;51.20;97992.63;7367622;19;20598;-70
2023/07/03 04:48:59;;;;;;;;;;;;;;;20.04;51.79;98003.31;7340524;19;19919;-70
2023/07/03 04:51:30;;;;;;;;;;;;;;;20.11;52.63;98005.91;7352376;19;19934;-70
2023/07/03 04:53:58;;;;;;;;;;;;;;;20.08;51.66;98000.97;7377521;19;20281;-70
2023/07/03 04:56:25;;;;;;;;;;;;;;;20.04;52.62;98010.56;7379627;19;19926;-71
2023/07/03 04:58:53;;;;;;;;;;;;;;;20.00;52.66;98001.28;7378149;19;19915;-71
2023/07/03 05:01:19;;;;;;;;;;;;;;;20.04;54.22;98006.00;7378894;19;19923;-71
2023/07/03 05:03:46;;;;;;;;;;;;;;;20.08;53.83;98015.22;7375585;19;19985;-70
2023/07/03 05:06:13;;;;;;;;;;;;;;;20.17;51.32;98008.50;7379472;19;19922;-70
2023/07/03 05:08:40;;;;;;;;;;;;;;;20.12;50.27;98011.06;7375372;19;19934;-70
2023/07/03 05:11:06;;;;;;;;;;;;;;;20.30;50.67;98015.59;7377826;19;20341;-71
2023/07/03 05:13:33;;;;;;;;;;;;;;;20.44;48.77;98012.72;7379495;19;19918;-70
2023/07/03 05:16:00;;;;;;;;;;;;;;;20.60;48.22;98018.28;7374765;19;19922;-70
2023/07/03 05:18:27;;;;;;;;;;;;;;;20.65;49.61;98019.47;7379792;19;19919;-71
2023/07/03 05:20:53;;;;;;;;;;;;;;;20.79;48.58;98023.59;7375780;19;19922;-70
2023/07/03 05:23:20;;;;;;;;;;;;;;;20.66;48.93;98018.41;7375854;19;19975;-71
2023/07/03 05:25:47;;;;;;;;;;;;;;;20.73;49.65;98021.84;7375103;19;19923;-70
2023/07/03 05:28:14;;;;;;;;;;;;;;;20.72;49.10;98021.03;7380337;19;19918;-70
2023/07/03 05:30:41;;;;;;;;;;;;;;;20.75;48.90;98025.13;7371116;19;20594;-69
2023/07/03 05:33:10;;;;;;;;;;;;;;;20.95;48.52;98028.31;7365038;19;19925;-70
2023/07/03 05:35:38;;;;;;;;;;;;;;;21.09;47.68;98030.78;7368948;19;19931;-71
2023/07/03 05:38:15;;;;;;;;;;;;;;;21.15;48.36;98032.56;7373924;19;19918;-71
2023/07/03 05:40:42;;;;;;;;;;;;;;;21.16;48.76;98036.88;7371122;19;19922;-70
2023/07/03 05:43:09;;;;;;;;;;;;;;;21.22;46.98;98028.72;7375127;19;19918;-70
2023/07/03 05:45:36;;;;;;;;;;;;;;;21.20;48.20;98033.50;7375783;19;19932;-70
2023/07/03 05:48:02;;;;;;;;;;;;;;;21.21;47.12;98040.50;7373102;19;19927;-70
2023/07/03 05:50:29;;;;;;;;;;;;;;;21.27;45.94;98038.75;7379183;19;19986;-70
2023/07/03 05:52:56;;;;;;;;;;;;;;;21.34;47.75;98027.88;7374992;19;19930;-71
2023/07/03 05:55:22;;;;;;;;;;;;;;;21.44;48.88;98033.53;7380977;19;19939;-70
2023/07/03 05:57:49;;;;;;;;;;;;;;;21.59;47.45;98031.19;7373125;19;19926;-71
2023/07/03 06:00:16;;;;;;;;;;;;;;;21.68;47.31;98040.53;7377179;19;19915;-71
2023/07/03 06:02:44;;;;;;;;;;;;;;;21.72;46.77;98043.56;7376395;19;19926;-70
2023/07/03 06:05:11;;;;;;;;;;;;;;;21.86;45.20;98041.47;7376850;19;19918;-70
2023/07/03 06:07:38;;;;;;;;;;;;;;;21.94;47.60;98040.28;7372622;19;19994;-70
2023/07/03 06:10:05;;;;;;;;;;;;;;;21.99;47.28;98043.91;7376421;19;20337;-70
2023/07/03 06:12:32;;;;;;;;;;;;;;;22.14;43.49;98040.69;7375347;19;19921;-70
2023/07/03 06:15:00;;;;;;;;;;;;;;;22.17;45.39;98045.63;7377990;19;19930;-70
2023/07/03 06:17:27;;;;;;;;;;;;;;;22.25;44.72;98039.91;7376783;19;20654;-71
2023/07/03 06:19:54;;;;;;;;;;;;;;;22.38;43.95;98046.88;7371276;19;19923;-70
2023/07/03 06:22:21;;;;;;;;;;;;;;;22.30;45.92;98050.78;7375570;19;20334;-71
2023/07/03 06:24:48;;;;;;;;;;;;;;;22.58;45.41;98049.94;7378604;19;19911;-70
2023/07/03 06:27:15;;;;;;;;;;;;;;;22.68;45.32;98051.22;7372608;19;19923;-70
2023/07/03 06:29:41;;;;;;;;;;;;;;;22.73;44.99;98049.41;7374662;19;19922;-71
2023/07/03 06:32:09;;;;;;;;;;;;;;;22.64;43.76;98044.66;7372212;19;19911;-71
2023/07/03 06:34:35;;;;;;;;;;;;;;;22.61;43.22;98056.72;7373233;19;19927;-71
2023/07/03 06:37:05;;;;;;;;;;;;;;;22.67;46.16;98052.25;7379211;19;19971;-70
2023/07/03 06:39:32;;;;;;;;;;;;;;;22.66;44.03;98046.03;7379741;19;19971;-70
2023/07/03 06:41:59;;;;;;;;;;;;;;;22.68;43.74;98060.13;7378225;19;19931;-71
2023/07/03 06:44:29;;;;;;;;;;;;;;;22.69;43.88;98056.34;7376675;19;19929;-70
2023/07/03 06:46:56;;;;;;;;;;;;;;;22.71;46.17;98059.63;7375977;19;19915;-71
2023/07/03 06:49:24;;;;;;;;;;;;;;;22.86;44.24;98058.28;7374907;19;20182;-70
2023/07/03 06:51:51;;;;;;;;;;;;;;;22.94;45.89;98060.56;7369525;19;19919;-71
2023/07/03 06:54:18;;;;;;;;;;;;;;;22.96;43.64;98072.78;7377936;19;19949;-70
2023/07/03 06:56:45;;;;;;;;;;;;;;;22.90;42.10;98067.50;7371193;19;19915;-71
2023/07/03 06:59:12;;;;;;;;;;;;;;;22.98;43.20;98070.66;7374229;19;19923;-70
2023/07/03 07:01:39;;;;;;;;;;;;;;;22.68;42.92;98064.69;7372107;19;19930;-69
2023/07/03 07:04:05;;;;;;;;;;;;;;;22.80;43.34;98070.84;7376936;19;19930;-70
2023/07/03 07:06:32;;;;;;;;;;;;;;;22.64;42.40;98063.53;7375826;19;20379;-73
2023/07/03 07:08:59;;;;;;;;;;;;;;;22.64;43.47;98077.00;7370325;19;19925;-70
2023/07/03 07:11:30;;;;;;;;;;;;;;;22.57;43.53;98067.19;7373010;19;20618;-70
2023/07/03 07:13:57;;;;;;;;;;;;;;;22.65;43.54;98070.56;7373117;19;19925;-71
2023/07/03 07:16:28;;;;;;;;;;;;;;;22.21;43.57;98073.75;7373842;19;19911;-69
2023/07/03 07:18:55;;;;;;;;;;;;;;;22.43;42.50;98071.22;7373074;19;19927;-70
2023/07/03 07:21:22;;;;;;;;;;;;;;;22.39;42.17;98071.94;7377032;19;19965;-69
2023/07/03 07:23:53;;;;;;;;;;;;;;;22.13;43.39;98074.09;7373508;19;19919;-72
2023/07/03 07:26:20;;;;;;;;;;;;;;;22.12;44.70;98073.28;7375983;19;19933;-69
2023/07/03 07:28:47;;;;;;;;;;;;;;;22.23;46.01;98074.34;7374452;19;19919;-70
2023/07/03 07:31:20;;;;;;;;;;;;;;;22.22;45.46;98070.00;7377115;19;19923;-70
2023/07/03 07:33:47;;;;;;;;;;;;;;;22.37;45.01;98074.06;7371569;19;19930;-70
2023/07/03 07:36:14;;;;;;;;;;;;;;;22.62;45.16;98081.81;7373467;19;19923;-70
2023/07/03 07:38:41;;;;;;;;;;;;;;;22.40;46.01;98078.97;7374342;19;19925;-70
2023/07/03 07:41:08;;;;;;;;;;;;;;;22.29;45.37;98080.66;7377646;19;19919;-70
2023/07/03 07:43:34;;;;;;;;;;;;;;;22.53;46.29;98086.78;7375385;19;19962;-71
2023/07/03 07:46:01;;;;;;;;;;;;;;;22.33;45.44;98079.94;7373347;19;19937;-69
2023/07/03 07:48:28;;;;;;;;;;;;;;;22.53;46.13;98081.38;7374045;19;20676;-70
2023/07/03 07:50:59;;;;;;;;;;;;;;;22.35;46.79;98088.59;7373305;19;20405;-70
2023/07/03 07:53:27;;;;;;;;;;;;;;;22.65;45.35;98086.75;7371132;19;20253;-70
2023/07/03 07:55:54;;;;;;;;;;;;;;;22.74;45.19;98096.88;7370381;19;19919;-71
2023/07/03 07:58:21;;;;;;;;;;;;;;;22.45;45.91;98092.56;7374488;19;20293;-70
2023/07/03 08:00:50;;;;;;;;;;;;;;;22.54;45.69;98093.81;7368606;19;20250;-70
2023/07/03 08:03:17;;;;;;;;;;;;;;;22.60;45.74;98083.97;7374398;19;20609;-70
2023/07/03 08:05:44;;;;;;;;;;;;;;;22.66;46.27;98099.16;7372740;19;19929;-70
2023/07/03 08:08:11;;;;;;;;;;;;;;;22.73;44.35;98094.44;7372417;19;19922;-69
2023/07/03 08:10:38;;;;;;;;;;;;;;;22.64;46.40;98096.69;7374700;19;19942;-70
2023/07/03 08:13:04;;;;;;;;;;;;;;;23.10;43.80;98100.28;7371830;19;20427;-69
2023/07/03 08:15:31;;;;;;;;;;;;;;;23.04;44.71;98103.97;7373135;19;19914;-70
2023/07/03 08:17:58;;;;;;;;;;;;;;;23.32;43.49;98091.47;7375060;19;19933;-68
2023/07/03 08:20:25;;;;;;;;;;;;;;;23.42;43.68;98091.63;7376398;19;19933;-69
2023/07/03 08:22:52;;;;;;;;;;;;;;;23.97;43.98;98093.56;7371307;19;20414;-68
2023/07/03 08:25:19;;;;;;;;;;;;;;;23.95;43.93;98092.97;7373580;19;20277;-70
2023/07/03 08:27:46;;;;;;;;;;;;;;;23.84;42.60;98093.91;7382717;19;19918;-70
2023/07/03 08:30:13;;;;;;;;;;;;;;;23.45;43.31;98102.75;7383825;19;19923;-70
2023/07/03 08:32:40;;;;;;;;;;;;;;;23.21;44.98;98110.19;7375008;19;19926;-70
2023/07/03 08:35:08;;;;;;;;;;;;;;;22.74;45.91;98110.38;7379159;19;19922;-71
2023/07/03 08:37:38;;;;;;;;;;;;;;;22.80;45.71;98108.59;7382575;19;19927;-70
2023/07/03 08:40:05;;;;;;;;;;;;;;;22.91;44.92;98120.41;7382966;19;19925;-70
2023/07/03 08:42:33;;;;;;;;;;;;;;;22.70;43.87;98116.50;7377527;19;19929;-70
2023/07/03 08:44:59;;;;;;;;;;;;;;;23.28;42.99;98111.91;7379007;19;19926;-70
2023/07/03 08:47:27;;;;;;;;;;;;;;;23.61;44.91;98106.50;7379464;19;19919;-71
2023/07/03 08:49:54;;;;;;;;;;;;;;;23.93;43.30;98102.41;7376372;19;19926;-70
2023/07/03 08:52:25;;;;;;;;;;;;;;;24.23;42.43;98108.22;7382866;19;19922;-69
2023/07/03 08:54:52;;;;;;;;;;;;;;;24.67;40.94;98099.31;7381805;19;20384;-69
2023/07/03 08:57:20;;;;;;;;;;;;;;;24.99;41.02;98110.22;7372750;19;20636;-69
2023/07/03 08:59:47;;;;;;;;;;;;;;;24.82;40.96;98104.88;7378888;19;19919;-69
2023/07/03 09:02:23;;;;;;;;;;;;;;;24.72;40.63;98104.78;7372944;19;19919;-69
2023/07/03 09:04:52;;;;;;;;;;;;;;;24.18;41.35;98104.66;7378105;19;19923;-71
2023/07/03 09:07:25;;;;;;;;;;;;;;;24.43;41.19;98096.84;7381248;19;19922;-70
2023/07/03 09:09:54;;;;;;;;;;;;;;;24.88;40.11;98103.03;7376944;19;19960;-70
2023/07/03 09:12:22;;;;;;;;;;;;;;;25.47;39.61;98096.84;7372542;19;19926;-70
2023/07/03 09:14:50;;;;;;;;;;;;;;;25.80;38.30;98096.56;7368680;19;20365;-69
2023/07/03 09:17:17;;;;;;;;;;;;;;;25.45;37.80;98101.72;7372945;19;19934;-70
2023/07/03 09:19:45;;;;;;;;;;;;;;;24.83;39.65;98103.84;7378290;19;19947;-69
2023/07/03 09:22:22;;;;;;;;;;;;;;;24.95;39.30;98111.78;7377777;19;20144;-70
2023/07/03 09:24:49;;;;;;;;;;;;;;;24.86;38.64;98114.13;7378009;19;19937;-70
2023/07/03 09:27:17;;;;;;;;;;;;;;;24.85;39.06;98111.69;7378764;19;20677;-68
2023/07/03 09:29:44;;;;;;;;;;;;;;;24.63;39.09;98107.13;7373390;19;19923;-70
2023/07/03 09:32:12;;;;;;;;;;;;;;;24.82;39.17;98104.88;7376893;19;19922;-70
2023/07/03 09:34:59;;;;;;;;;;;;;;;25.77;39.02;98107.09;7377070;19;19930;-70
2023/07/03 09:37:27;;;;;;;;;;;;;;;26.36;34.99;98103.38;7378553;19;20526;-70
2023/07/03 09:39:54;;;;;;;;;;;;;;;26.52;35.96;98104.28;7376999;19;19998;-69
2023/07/03 09:42:21;;;;;;;;;;;;;;;26.40;35.68;98101.75;7372119;19;20008;-70
2023/07/03 09:44:49;;;;;;;;;;;;;;;25.80;37.10;98104.69;7379783;19;19915;-70
2023/07/03 09:47:21;;;;;;;;;;;;;;;25.18;37.94;98107.97;7372102;19;19948;-70
2023/07/03 09:49:48;;;;;;;;;;;;;;;24.68;38.39;98098.25;7378295;19;20714;-70
2023/07/03 09:52:15;;;;;;;;;;;;;;;24.15;39.07;98102.44;7380848;19;19919;-70
2023/07/03 09:54:43;;;;;;;;;;;;;;;24.31;38.46;98104.28;7376832;19;19911;-70
2023/07/03 09:57:22;;;;;;;;;;;;;;;24.66;39.78;98101.19;7376810;19;19919;-70
2023/07/03 09:59:49;;;;;;;;;;;;;;;25.38;37.75;98088.38;7373548;19;19926;-70
2023/07/03 10:02:17;;;;;;;;;;;;;;;25.77;36.48;98088.94;7378017;19;19915;-70
2023/07/03 10:04:46;;;;;;;;;;;;;;;26.28;35.77;98100.09;7378950;19;19918;-70
2023/07/03 10:07:16;;;;;;;;;;;;;;;26.70;34.67;98096.47;7377772;19;19926;-70
2023/07/03 10:09:44;;;;;;;;;;;;;;;26.99;33.59;98096.00;7377525;19;19968;-69
2023/07/03 10:12:33;;;;;;;;;;;;;;;27.11;31.51;98101.97;7381794;19;19918;-70
2023/07/03 10:15:06;;;;;;;;;;;;;;;26.82;31.88;98085.38;7377363;19;19922;-73
2023/07/03 10:17:34;;;;;;;;;;;;;;;27.05;31.68;98085.97;7376209;19;20034;-70
2023/07/03 10:20:03;;;;;;;;;;;;;;;26.78;33.03;98081.56;7370549;19;19990;-70
2023/07/03 10:22:30;;;;;;;;;;;;;;;27.35;33.73;98090.63;7377378;19;20329;-70
2023/07/03 10:25:00;;;;;;;;;;;;;;;27.52;31.24;98087.63;7374199;19;19994;-70
2023/07/03 10:27:27;;;;;;;;;;;;;;;26.54;31.92;98089.38;7373077;19;19919;-70
2023/07/03 10:29:54;;;;;;;;;;;;;;;26.25;33.42;98091.66;7374153;19;20161;-70
2023/07/03 10:32:23;;;;;;;;;;;;;;;26.16;33.15;98087.84;7375332;19;19938;-70
2023/07/03 10:35:02;;;;;;;;;;;;;;;26.08;33.68;98083.72;7377324;19;20312;-70
2023/07/03 10:37:31;;;;;;;;;;;;;;;26.58;33.17;98090.47;7369633;19;19929;-70
2023/07/03 10:39:59;;;;;;;;;;;;;;;27.15;32.70;98097.66;7374943;19;19922;-69
2023/07/03 10:42:34;;;;;;;;;;;;;;;26.59;32.32;98099.41;7378119;19;19923;-70
2023/07/03 10:45:05;;;;;;;;;;;;;;;26.56;32.52;98095.34;7368189;19;20664;-70
2023/07/03 10:47:48;;;;;;;;;;;;;;;26.10;32.32;98097.84;7374114;19;19919;-70
2023/07/03 10:50:18;;;;;;;;;;;;;;;26.15;34.16;98097.88;7376495;19;20100;-70
2023/07/03 10:53:04;;;;;;;;;;;;;;;25.91;34.24;98093.91;7366982;19;19918;-70
2023/07/03 10:55:36;;;;;;;;;;;;;;;25.84;33.35;98086.03;7369722;19;19919;-69
2023/07/03 10:58:12;;;;;;;;;;;;;;;25.93;34.19;98089.88;7374404;19;19962;-70
2023/07/03 11:00:57;;;;;;;;;;;;;;;25.80;33.72;98101.13;7374381;19;19994;-70
2023/07/03 11:03:28;;;;;;;;;;;;;;;25.34;35.20;98096.22;7372060;19;20360;-69
2023/07/03 11:06:01;;;;;;;;;;;;;;;25.42;35.45;98094.09;7368074;19;19919;-71
2023/07/03 11:08:31;;;;;;;;;;;;;;;25.90;35.16;98098.53;7373563;19;19922;-70
2023/07/03 11:11:01;;;;;;;;;;;;;;;25.76;34.40;98098.16;7371991;19;19918;-70
2023/07/03 11:13:29;;;;;;;;;;;;;;;25.63;34.49;98104.00;7369935;19;19923;-69
2023/07/03 11:16:11;;;;;;;;;;;;;;;25.43;36.22;98101.94;7375150;19;19919;-69
2023/07/03 11:18:48;;;;;;;;;;;;;;;25.63;34.75;98104.00;7370547;19;21075;-70
2023/07/03 11:21:39;;;;;;;;;;;;;;;25.27;35.93;98095.59;7374452;19;19922;-70
2023/07/03 11:24:19;;;;;;;;;;;;;;;25.77;36.04;98099.75;7372130;19;19922;-70
2023/07/03 11:26:46;;;;;;;;;;;;;;;25.78;35.98;98106.84;7370291;19;19925;-70
2023/07/03 11:29:15;;;;;;;;;;;;;;;25.72;35.87;98097.03;7376273;19;19923;-69
2023/07/03 11:31:42;;;;;;;;;;;;;;;25.13;37.35;98094.38;7374541;19;19931;-71
2023/07/03 11:34:10;;;;;;;;;;;;;;;24.75;36.83;98107.00;7371908;19;20001;-69
2023/07/03 11:36:41;;;;;;;;;;;;;;;25.10;36.73;98111.13;7368889;19;20265;-70
2023/07/03 11:39:24;;;;;;;;;;;;;;;25.36;37.54;98104.91;7373347;19;20338;-70
2023/07/03 11:41:54;;;;;;;;;;;;;;;25.54;36.30;98105.56;7368839;19;20886;-70
2023/07/03 11:44:33;;;;;;;;;;;;;;;25.76;36.01;98097.34;7373889;19;19918;-69
2023/07/03 11:47:01;;;;;;;;;;;;;;;25.99;36.59;98102.38;7379461;19;20186;-70
2023/07/03 11:49:30;;;;;;;;;;;;;;;25.40;36.76;98108.69;7381084;19;19915;-69
2023/07/03 11:52:01;;;;;;;;;;;;;;;25.99;37.64;98096.16;7374893;19;20009;-69
2023/07/03 11:54:29;;;;;;;;;;;;;;;26.14;37.29;98106.25;7374596;19;20262;-69
2023/07/03 11:57:03;;;;;;;;;;;;;;;25.92;37.49;98111.81;7372332;19;19933;-70
2023/07/03 11:59:31;;;;;;;;;;;;;;;25.59;38.29;98116.44;7367935;19;19919;-71
2023/07/03 12:02:10;;;;;;;;;;;;;;;25.75;37.71;98114.66;7370020;19;19925;-70
2023/07/03 12:04:43;;;;;;;;;;;;;;;25.74;37.62;98121.16;7375260;19;19927;-71
2023/07/03 12:07:17;;;;;;;;;;;;;;;25.93;37.26;98113.44;7373841;19;19964;-71
2023/07/03 12:09:44;;;;;;;;;;;;;;;26.20;36.66;98126.91;7375893;19;20356;-69
2023/07/03 12:12:12;;;;;;;;;;;;;;;25.91;36.81;98127.28;7371829;19;20280;-70
2023/07/03 12:14:39;;;;;;;;;;;;;;;26.00;38.39;98116.75;7373663;19;19919;-69
2023/07/03 12:17:14;;;;;;;;;;;;;;;25.89;37.62;98121.28;7365855;19;19948;-68
2023/07/03 12:19:41;;;;;;;;;;;;;;;25.78;37.44;98128.50;7374643;19;19917;-74
2023/07/03 12:22:11;;;;;;;;;;;;;;;25.43;38.93;98114.69;7371901;19;19911;-70
2023/07/03 12:24:37;;;;;;;;;;;;;;;25.58;38.86;98120.22;7369974;19;20258;-68
2023/07/03 12:27:05;;;;;;;;;;;;;;;25.14;38.43;98117.66;7373066;19;19914;-68
2023/07/03 12:29:34;;;;;;;;;;;;;;;25.31;39.40;98112.16;7376121;19;19974;-69
2023/07/03 12:32:08;;;;;;;;;;;;;;;25.50;39.04;98115.28;7373022;19;19919;-69
2023/07/03 12:34:36;;;;;;;;;;;;;;;25.19;38.87;98118.53;7369325;19;19926;-69
2023/07/03 12:37:04;;;;;;;;;;;;;;;25.35;38.28;98124.09;7373033;19;21130;-69
2023/07/03 12:39:31;;;;;;;;;;;;;;;25.61;37.50;98115.09;7372369;19;19989;-69
2023/07/03 12:42:08;;;;;;;;;;;;;;;25.56;37.89;98125.09;7367891;19;19922;-68
2023/07/03 12:44:35;;;;;;;;;;;;;;;25.42;38.49;98113.06;7369278;19;19923;-69
2023/07/03 12:47:09;;;;;;;;;;;;;;;25.73;37.17;98114.13;7373344;19;19923;-69
2023/07/03 12:49:55;;;;;;;;;;;;;;;25.71;36.56;98114.38;7371772;19;19927;-69
2023/07/03 12:52:23;;;;;;;;;;;;;;;26.12;36.71;98116.53;7368228;19;19952;-70
2023/07/03 12:54:50;;;;;;;;;;;;;;;26.09;36.64;98117.06;7372595;19;19934;-69